createdAt,value
2018-05-02T00:00:40.011Z,3.50
2018-05-02T00:03:08.509Z,3.10
2018-05-02T00:05:36.981Z,3.60
2018-05-02T00:08:05.661Z,3.30
2018-05-02T00:10:33.837Z,2.90
2018-05-02T00:13:02.114Z,3.70
2018-05-02T00:15:30.589Z,3.73
2018-05-02T00:17:59.189Z,3.00
2018-05-02T00:20:27.825Z,3.30
2018-05-02T00:22:57.077Z,3.20
2018-05-02T00:25:25.573Z,3.53
2018-05-02T00:27:54.051Z,3.40
2018-05-02T00:30:22.536Z,3.63
2018-05-02T00:32:51.001Z,4.13
2018-05-02T00:35:19.685Z,3.10
2018-05-02T00:37:48.220Z,3.37
2018-05-02T00:40:16.752Z,3.80
2018-05-02T00:42:45.242Z,3.57
2018-05-02T00:45:13.705Z,3.33
2018-05-02T00:47:42.185Z,3.47
2018-05-02T00:50:10.681Z,3.50
2018-05-02T00:52:39.216Z,2.80
2018-05-02T00:55:07.801Z,4.07
2018-05-02T00:57:36.416Z,3.57
2018-05-02T01:00:04.562Z,3.80
2018-05-02T01:02:33.162Z,3.80
2018-05-02T01:05:02.413Z,3.90
2018-05-02T01:07:30.889Z,3.90
2018-05-02T01:09:59.388Z,3.63
2018-05-02T01:12:27.958Z,3.63
2018-05-02T01:14:56.127Z,3.80
2018-05-02T01:17:24.621Z,3.40
2018-05-02T01:19:53.125Z,3.57
2018-05-02T01:22:23.105Z,3.40
2018-05-02T01:24:51.654Z,3.10
2018-05-02T01:27:20.918Z,3.67
2018-05-02T01:29:49.390Z,3.80
2018-05-02T01:32:17.540Z,3.40
2018-05-02T01:34:46.008Z,4.00
2018-05-02T01:37:14.487Z,3.63
2018-05-02T01:39:42.994Z,3.63
2018-05-02T01:42:11.505Z,3.87
2018-05-02T01:44:39.977Z,3.60
2018-05-02T01:47:08.482Z,3.30
2018-05-02T01:49:37.129Z,4.20
2018-05-02T01:52:05.293Z,3.67
2018-05-02T01:54:33.817Z,4.10
2018-05-02T01:57:02.493Z,3.87
2018-05-02T01:59:31.001Z,4.10
2018-05-02T02:01:59.473Z,3.80
2018-05-02T02:04:27.962Z,3.63
2018-05-02T02:06:56.433Z,4.57
2018-05-02T02:09:24.584Z,3.70
2018-05-02T02:11:53.048Z,4.30
2018-05-02T02:14:21.342Z,4.23
2018-05-02T02:16:49.836Z,3.90
2018-05-02T02:19:18.300Z,3.90
2018-05-02T02:21:46.952Z,4.30
2018-05-02T02:24:16.404Z,4.03
2018-05-02T02:26:45.044Z,4.10
2018-05-02T02:29:14.292Z,4.20
2018-05-02T02:31:42.770Z,4.00
2018-05-02T02:34:11.257Z,4.60
2018-05-02T02:36:39.722Z,4.00
2018-05-02T02:39:08.224Z,4.37
2018-05-02T02:41:36.706Z,5.40
2018-05-02T02:44:05.424Z,4.20
2018-05-02T02:46:33.885Z,4.80
2018-05-02T02:49:03.536Z,4.70
2018-05-02T02:51:32.833Z,4.83
2018-05-02T02:54:02.087Z,4.53
2018-05-02T02:56:30.573Z,4.60
2018-05-02T02:58:59.189Z,4.37
2018-05-02T03:01:27.657Z,4.80
2018-05-02T03:03:56.147Z,4.80
2018-05-02T03:06:24.768Z,3.97
2018-05-02T03:08:54.000Z,4.63
2018-05-02T03:11:22.497Z,4.77
2018-05-02T03:13:51.022Z,5.30
2018-05-02T03:16:20.284Z,4.33
2018-05-02T03:18:48.865Z,4.63
2018-05-02T03:21:17.338Z,4.87
2018-05-02T03:23:45.808Z,4.60
2018-05-02T03:26:14.304Z,4.43
2018-05-02T03:28:42.870Z,4.67
2018-05-02T03:31:11.353Z,4.53
2018-05-02T03:33:39.856Z,4.50
2018-05-02T03:36:08.322Z,4.60
2018-05-02T03:38:36.825Z,4.67
2018-05-02T03:41:05.296Z,4.50
2018-05-02T03:43:33.777Z,5.00
2018-05-02T03:46:02.249Z,5.20
2018-05-02T03:48:30.840Z,5.50
2018-05-02T03:50:59.537Z,5.37
2018-05-02T03:53:28.733Z,4.80
2018-05-02T03:55:57.221Z,5.50
2018-05-02T03:58:25.685Z,5.57
2018-05-02T04:01:05.552Z,4.67
2018-05-02T04:03:45.261Z,5.07
2018-05-02T04:06:16.373Z,4.87
2018-05-02T04:08:44.769Z,4.63
2018-05-02T04:11:14.036Z,4.47
2018-05-02T04:13:42.284Z,5.43
2018-05-02T04:16:10.765Z,4.60
2018-05-02T04:18:40.280Z,4.50
2018-05-02T04:21:08.760Z,4.07
2018-05-02T04:23:37.266Z,4.03
2018-05-02T04:26:05.797Z,5.10
2018-05-02T04:28:34.433Z,4.50
2018-05-02T04:31:02.905Z,4.50
2018-05-02T04:33:31.479Z,4.87
2018-05-02T04:35:59.953Z,5.00
2018-05-02T04:38:28.437Z,4.73
2018-05-02T04:40:56.909Z,5.03
2018-05-02T04:43:25.557Z,5.07
2018-05-02T04:45:54.025Z,5.30
2018-05-02T04:48:22.509Z,4.90
2018-05-02T04:50:50.977Z,5.20
2018-05-02T04:53:19.562Z,6.20
2018-05-02T04:55:48.042Z,4.90
2018-05-02T04:58:16.544Z,5.40
2018-05-02T05:00:45.044Z,4.90
2018-05-02T05:03:13.597Z,5.40
2018-05-02T05:05:42.064Z,4.23
2018-05-02T05:08:10.554Z,4.93
2018-05-02T05:10:39.025Z,5.53
2018-05-02T05:13:07.714Z,4.80
2018-05-02T05:15:36.210Z,5.00
2018-05-02T05:18:04.361Z,5.40
2018-05-02T05:20:32.869Z,4.93
2018-05-02T05:23:01.334Z,4.90
2018-05-02T05:25:29.821Z,5.50
2018-05-02T05:27:58.313Z,5.10
2018-05-02T05:30:26.789Z,5.00
2018-05-02T05:32:55.281Z,5.27
2018-05-02T05:35:24.757Z,5.03
2018-05-02T05:37:53.417Z,5.03
2018-05-02T05:40:23.404Z,5.13
2018-05-02T05:42:51.921Z,5.10
2018-05-02T05:45:21.264Z,5.20
2018-05-02T05:47:49.798Z,5.10
2018-05-02T05:50:18.336Z,4.97
2018-05-02T05:52:47.024Z,5.33
2018-05-02T05:55:15.513Z,5.67
2018-05-02T05:57:43.993Z,5.97
2018-05-02T06:00:12.486Z,5.50
2018-05-02T06:02:40.961Z,5.33
2018-05-02T06:05:09.471Z,5.23
2018-05-02T06:07:38.230Z,5.60
2018-05-02T06:10:08.388Z,5.50
2018-05-02T06:12:36.903Z,6.03
2018-05-02T06:15:05.561Z,5.70
2018-05-02T06:17:34.036Z,5.47
2018-05-02T06:20:02.537Z,5.50
2018-05-02T06:22:31.859Z,5.93
2018-05-02T06:25:00.861Z,5.70
2018-05-02T06:27:29.121Z,6.47
2018-05-02T06:29:58.352Z,6.40
2018-05-02T06:32:26.888Z,5.93
2018-05-02T06:34:55.367Z,6.20
2018-05-02T06:37:24.061Z,5.60
2018-05-02T06:39:54.135Z,5.47
2018-05-02T06:42:22.645Z,5.70
2018-05-02T06:44:51.122Z,5.70
2018-05-02T06:47:19.774Z,5.40
2018-05-02T06:49:48.241Z,6.57
2018-05-02T06:52:17.564Z,7.50
2018-05-02T06:54:46.091Z,5.90
2018-05-02T06:57:14.737Z,5.90
2018-05-02T06:59:43.244Z,5.93
2018-05-02T07:02:11.729Z,6.43
2018-05-02T07:04:40.317Z,5.80
2018-05-02T07:07:08.844Z,5.57
2018-05-02T07:09:37.474Z,6.10
2018-05-02T07:12:05.953Z,6.00
2018-05-02T07:14:34.529Z,5.93
2018-05-02T07:17:03.008Z,6.27
2018-05-02T07:19:31.588Z,6.87
2018-05-02T07:22:00.052Z,6.47
2018-05-02T07:24:28.536Z,6.90
2018-05-02T07:26:57.125Z,6.33
2018-05-02T07:29:25.616Z,6.60
2018-05-02T07:31:54.291Z,7.37
2018-05-02T07:34:22.793Z,6.10
2018-05-02T07:36:51.449Z,7.40
2018-05-02T07:39:20.687Z,7.30
2018-05-02T07:41:49.173Z,7.90
2018-05-02T07:44:17.651Z,7.73
2018-05-02T07:46:46.140Z,7.60
2018-05-02T07:49:14.617Z,8.33
2018-05-02T07:51:43.105Z,7.20
2018-05-02T07:54:11.602Z,7.03
2018-05-02T07:56:40.095Z,8.27
2018-05-02T07:59:08.797Z,6.57
2018-05-02T08:01:38.034Z,7.40
2018-05-02T08:04:06.181Z,7.60
2018-05-02T08:06:34.658Z,7.00
2018-05-02T08:09:03.367Z,6.80
2018-05-02T08:11:32.601Z,6.70
2018-05-02T08:14:01.089Z,6.90
2018-05-02T08:16:29.610Z,6.77
2018-05-02T08:18:58.271Z,6.13
2018-05-02T08:21:26.830Z,6.97
2018-05-02T08:23:55.311Z,7.70
2018-05-02T08:26:23.836Z,7.27
2018-05-02T08:28:52.305Z,6.70
2018-05-02T08:31:20.790Z,7.37
2018-05-02T08:33:49.276Z,7.13
2018-05-02T08:36:17.870Z,7.13
2018-05-02T08:38:47.209Z,8.37
2018-05-02T08:41:15.708Z,6.90
2018-05-02T08:43:44.287Z,6.80
2018-05-02T08:46:12.437Z,6.37
2018-05-02T08:48:41.689Z,6.43
2018-05-02T08:51:10.180Z,6.30
2018-05-02T08:53:39.583Z,6.40
2018-05-02T08:56:08.056Z,6.70
2018-05-02T08:58:36.551Z,6.77
2018-05-02T09:01:05.218Z,6.40
2018-05-02T09:03:33.741Z,6.53
2018-05-02T09:06:02.287Z,6.30
2018-05-02T09:08:30.805Z,7.10
2018-05-02T09:10:59.325Z,6.80
2018-05-02T09:13:28.605Z,6.70
2018-05-02T09:15:57.107Z,7.07
2018-05-02T09:18:26.337Z,6.20
2018-05-02T09:20:54.489Z,6.10
2018-05-02T09:23:22.962Z,6.97
2018-05-02T09:25:51.476Z,6.43
2018-05-02T09:28:20.021Z,6.23
2018-05-02T09:30:49.457Z,6.67
2018-05-02T09:33:17.987Z,6.20
2018-05-02T09:35:46.729Z,6.60
2018-05-02T09:38:15.209Z,6.33
2018-05-02T09:40:43.417Z,6.00
2018-05-02T09:43:11.992Z,5.73
2018-05-02T09:45:40.493Z,6.93
2018-05-02T09:48:09.776Z,5.70
2018-05-02T09:50:38.395Z,6.00
2018-05-02T09:53:06.882Z,6.60
2018-05-02T09:55:35.358Z,5.63
2018-05-02T09:58:03.874Z,6.70
2018-05-02T10:00:32.355Z,5.97
2018-05-02T10:03:00.905Z,5.70
2018-05-02T10:05:30.388Z,5.67
2018-05-02T10:07:59.874Z,5.10
2018-05-02T10:10:29.356Z,5.70
2018-05-02T10:12:58.848Z,5.83
2018-05-02T10:15:28.185Z,6.07
2018-05-02T10:17:56.685Z,5.57
2018-05-02T10:20:25.257Z,5.30
2018-05-02T10:22:53.877Z,5.63
2018-05-02T10:25:22.365Z,5.73
2018-05-02T10:27:50.846Z,5.90
2018-05-02T10:30:19.332Z,5.20
2018-05-02T10:32:48.804Z,4.83
2018-05-02T10:35:18.095Z,5.40
2018-05-02T10:37:47.632Z,5.07
2018-05-02T10:40:17.172Z,5.57
2018-05-02T10:42:46.413Z,6.23
2018-05-02T10:45:14.993Z,5.50
2018-05-02T10:47:43.490Z,5.33
2018-05-02T10:50:12.962Z,5.70
2018-05-02T10:52:42.219Z,5.90
2018-05-02T10:55:11.720Z,5.90
2018-05-02T10:57:40.977Z,5.10
2018-05-02T11:00:10.445Z,5.60
2018-05-02T11:02:40.070Z,5.30
2018-05-02T11:05:09.541Z,5.40
2018-05-02T11:07:39.037Z,5.33
2018-05-02T11:10:08.519Z,6.30
2018-05-02T11:12:38.026Z,5.03
2018-05-02T11:15:07.510Z,4.83
2018-05-02T11:17:37.176Z,5.20
2018-05-02T11:20:06.699Z,5.50
2018-05-02T11:22:36.192Z,5.53
2018-05-02T11:25:05.696Z,4.07
2018-05-02T11:27:34.186Z,5.57
2018-05-02T11:30:03.360Z,5.50
2018-05-02T11:32:33.056Z,5.40
2018-05-02T11:35:02.673Z,4.60
2018-05-02T11:37:32.964Z,4.97
2018-05-02T11:40:02.308Z,4.63
2018-05-02T11:42:31.784Z,6.03
2018-05-02T11:45:01.033Z,5.97
2018-05-02T11:47:30.589Z,4.90
2018-05-02T11:50:00.089Z,5.30
2018-05-02T11:52:29.604Z,4.93
2018-05-02T11:54:59.146Z,4.33
2018-05-02T11:57:28.643Z,4.50
2018-05-02T11:59:58.117Z,4.50
2018-05-02T12:02:27.608Z,4.50
2018-05-02T12:04:57.080Z,4.60
2018-05-02T12:07:26.728Z,3.63
2018-05-02T12:09:55.937Z,4.60
2018-05-02T12:12:25.437Z,4.10
2018-05-02T12:14:55.160Z,4.63
2018-05-02T12:17:24.668Z,4.30
2018-05-02T12:19:54.214Z,4.13
2018-05-02T12:22:23.692Z,4.07
2018-05-02T12:24:53.205Z,4.23
2018-05-02T12:27:22.696Z,4.23
2018-05-02T12:29:52.360Z,3.83
2018-05-02T12:32:21.956Z,3.63
2018-05-02T12:34:51.456Z,4.70
2018-05-02T12:37:20.964Z,4.70
2018-05-02T12:39:50.448Z,3.80
2018-05-02T12:42:19.944Z,4.00
2018-05-02T12:44:49.416Z,4.10
2018-05-02T12:47:18.904Z,4.50
2018-05-02T12:49:48.392Z,3.67
2018-05-02T12:52:17.892Z,3.77
2018-05-02T12:54:47.552Z,4.60
2018-05-02T12:57:17.056Z,4.73
2018-05-02T12:59:46.592Z,4.30
2018-05-02T13:02:16.107Z,4.70
2018-05-02T13:04:45.593Z,4.77
2018-05-02T13:07:15.797Z,4.57
2018-05-02T13:09:45.816Z,4.70
2018-05-02T13:12:15.371Z,4.83
2018-05-02T13:14:45.591Z,4.33
2018-05-02T13:17:15.393Z,4.90
2018-05-02T13:19:45.513Z,3.73
2018-05-02T13:22:15.040Z,4.00
2018-05-02T13:24:44.557Z,4.43
2018-05-02T13:27:14.158Z,3.90
2018-05-02T13:29:43.791Z,4.90
2018-05-02T13:32:13.322Z,4.27
2018-05-02T13:34:42.876Z,4.73
2018-05-02T13:37:12.425Z,3.70
2018-05-02T13:39:41.968Z,4.03
2018-05-02T13:42:11.525Z,5.20
2018-05-02T13:44:41.168Z,3.47
2018-05-02T13:47:10.776Z,4.30
2018-05-02T13:49:40.263Z,4.47
2018-05-02T13:52:09.473Z,4.20
2018-05-02T13:54:39.136Z,4.00
2018-05-02T13:57:08.685Z,4.00
2018-05-02T13:59:38.226Z,4.10
2018-05-02T14:02:07.884Z,4.30
2018-05-02T14:04:37.455Z,4.70
2018-05-02T14:07:07.024Z,4.00
2018-05-02T14:09:36.614Z,3.97
2018-05-02T14:12:06.158Z,4.10
2018-05-02T14:14:35.965Z,4.67
2018-05-02T14:17:05.578Z,4.00
2018-05-02T14:19:35.195Z,4.77
2018-05-02T14:22:04.841Z,4.60
2018-05-02T14:24:34.484Z,4.60
2018-05-02T14:27:04.032Z,4.50
2018-05-02T14:29:33.527Z,4.20
2018-05-02T14:32:03.024Z,3.97
2018-05-02T14:34:32.533Z,4.30
2018-05-02T14:37:02.041Z,3.70
2018-05-02T14:39:31.663Z,4.73
2018-05-02T14:42:01.142Z,3.77
2018-05-02T14:44:30.661Z,4.33
2018-05-02T14:47:00.137Z,3.80
2018-05-02T14:49:29.608Z,3.40
2018-05-02T14:51:59.117Z,4.10
2018-05-02T14:54:28.611Z,3.53
2018-05-02T14:56:58.125Z,3.43
2018-05-02T14:59:27.614Z,3.97
2018-05-02T15:01:57.134Z,3.87
2018-05-02T15:04:26.712Z,4.37
2018-05-02T15:06:56.201Z,4.03
2018-05-02T15:09:25.692Z,3.60
2018-05-02T15:11:54.889Z,3.90
2018-05-02T15:14:24.453Z,3.53
2018-05-02T15:16:53.956Z,3.70
2018-05-02T15:19:23.443Z,4.10
2018-05-02T15:21:52.936Z,3.83
2018-05-02T15:24:22.488Z,3.77
2018-05-02T15:26:52.165Z,3.40
2018-05-02T15:29:21.693Z,3.53
2018-05-02T15:31:51.201Z,3.60
2018-05-02T15:34:20.848Z,3.13
2018-05-02T15:36:50.333Z,2.93
2018-05-02T15:39:19.820Z,3.20
2018-05-02T15:41:49.318Z,4.13
2018-05-02T15:44:18.501Z,9.13
2018-05-02T15:46:48.005Z,5.30
2018-05-02T15:49:17.615Z,3.10
2018-05-02T15:51:47.268Z,3.47
2018-05-02T15:54:16.999Z,3.57
2018-05-02T15:56:46.574Z,3.60
2018-05-02T15:59:16.068Z,4.27
2018-05-02T16:01:45.589Z,3.73
2018-05-02T16:04:15.093Z,3.67
2018-05-02T16:06:44.628Z,3.43
2018-05-02T16:09:14.127Z,3.63
2018-05-02T16:11:43.625Z,3.13
2018-05-02T16:14:13.207Z,2.87
2018-05-02T16:16:42.729Z,2.83
2018-05-02T16:19:12.224Z,3.00
2018-05-02T16:21:41.705Z,3.60
2018-05-02T16:24:11.200Z,3.20
2018-05-02T16:26:40.685Z,3.00
2018-05-02T16:29:10.236Z,3.67
2018-05-02T16:31:39.724Z,3.53
2018-05-02T16:34:09.268Z,3.80
2018-05-02T16:36:38.833Z,3.60
2018-05-02T16:39:08.440Z,3.60
2018-05-02T16:41:38.033Z,3.00
2018-05-02T16:44:07.529Z,3.60
2018-05-02T16:46:37.090Z,2.87
2018-05-02T16:49:06.621Z,4.23
2018-05-02T16:51:36.161Z,4.10
2018-05-02T16:54:05.692Z,3.90
2018-05-02T16:56:35.223Z,3.30
2018-05-02T16:59:04.945Z,4.00
2018-05-02T17:01:34.446Z,4.30
2018-05-02T17:04:03.600Z,3.43
2018-05-02T17:06:33.117Z,3.23
2018-05-02T17:09:02.661Z,3.67
2018-05-02T17:11:32.157Z,3.30
2018-05-02T17:14:01.705Z,3.30
2018-05-02T17:16:31.275Z,3.00
2018-05-02T17:19:00.757Z,3.10
2018-05-02T17:21:30.267Z,4.00
2018-05-02T17:23:59.772Z,4.40
2018-05-02T17:26:29.293Z,5.57
2018-05-02T17:28:58.785Z,4.90
2018-05-02T17:31:28.313Z,4.63
2018-05-02T17:33:57.820Z,4.30
2018-05-02T17:36:27.498Z,3.73
2018-05-02T17:38:56.990Z,4.80
2018-05-02T17:41:26.539Z,4.10
2018-05-02T17:43:56.120Z,5.10
2018-05-02T17:46:25.730Z,4.70
2018-05-02T17:48:55.377Z,4.40
2018-05-02T17:51:24.885Z,5.07
2018-05-02T17:53:54.444Z,3.90
2018-05-02T17:56:23.931Z,4.07
2018-05-02T17:58:53.449Z,4.00
2018-05-02T18:01:23.006Z,3.50
2018-05-02T18:03:52.568Z,4.57
2018-05-02T18:06:22.201Z,4.20
2018-05-02T18:08:51.772Z,4.47
2018-05-02T18:11:21.420Z,4.00
2018-05-02T18:13:56.614Z,4.10
2018-05-02T18:16:26.125Z,4.03
2018-05-02T18:18:55.624Z,4.13
2018-05-02T18:21:25.096Z,3.73
2018-05-02T18:23:54.677Z,3.87
2018-05-02T18:26:24.164Z,4.00
2018-05-02T18:28:53.755Z,3.40
2018-05-02T18:31:23.307Z,3.40
2018-05-02T18:33:53.023Z,3.40
2018-05-02T18:36:22.577Z,4.10
2018-05-02T18:38:52.327Z,3.93
2018-05-02T18:41:21.841Z,3.70
2018-05-02T18:43:51.398Z,3.30
2018-05-02T18:46:20.977Z,3.60
2018-05-02T18:48:50.274Z,3.87
2018-05-02T18:51:18.814Z,4.27
2018-05-02T18:53:47.307Z,3.80
2018-05-02T18:56:15.835Z,3.80
2018-05-02T18:58:45.118Z,3.90
2018-05-02T19:01:13.628Z,4.17
2018-05-02T19:03:43.820Z,4.10
2018-05-02T19:06:12.950Z,4.27
2018-05-02T19:08:42.404Z,4.80
2018-05-02T19:11:11.550Z,4.93
2018-05-02T19:13:45.874Z,4.90
2018-05-02T19:16:15.748Z,4.73
2018-05-02T19:18:50.518Z,4.47
2018-05-02T19:21:19.590Z,4.33
2018-05-02T19:23:48.953Z,4.80
2018-05-02T19:26:22.945Z,5.03
2018-05-02T19:28:51.436Z,5.27
2018-05-02T19:31:25.278Z,5.10
2018-05-02T19:33:54.482Z,4.57
2018-05-02T19:36:23.011Z,4.50
2018-05-02T19:38:51.523Z,4.67
2018-05-02T19:41:25.498Z,4.70
2018-05-02T19:44:00.228Z,4.50
2018-05-02T19:46:29.166Z,4.60
2018-05-02T19:48:57.675Z,5.13
2018-05-02T19:51:33.398Z,4.30
2018-05-02T19:54:01.955Z,4.97
2018-05-02T19:56:30.514Z,4.47
2018-05-02T19:59:00.687Z,5.00
2018-05-02T20:01:45.696Z,4.60
2018-05-02T20:04:14.221Z,4.63
2018-05-02T20:06:42.776Z,4.90
2018-05-02T20:09:17.561Z,5.30
2018-05-02T20:11:51.679Z,4.20
2018-05-02T20:14:20.190Z,4.70
2018-05-02T20:16:48.450Z,4.70
2018-05-02T20:19:16.982Z,6.17
2018-05-02T20:21:46.240Z,5.20
2018-05-02T20:24:14.806Z,4.97
2018-05-02T20:26:43.293Z,5.50
2018-05-02T20:29:11.794Z,4.97
2018-05-02T20:31:40.304Z,4.80
2018-05-02T20:34:11.583Z,4.63
2018-05-02T20:36:40.102Z,4.93
2018-05-02T20:39:08.589Z,4.43
2018-05-02T20:41:37.337Z,4.90
2018-05-02T20:44:06.022Z,4.47
2018-05-02T20:46:35.498Z,4.30
2018-05-02T20:49:04.786Z,5.20
2018-05-02T20:51:32.944Z,5.13
2018-05-02T20:54:01.496Z,5.50
2018-05-02T20:56:30.046Z,5.20
2018-05-02T20:58:59.319Z,5.50
2018-05-02T21:01:29.326Z,5.67
2018-05-02T21:03:57.812Z,5.70
2018-05-02T21:06:26.329Z,5.90
2018-05-02T21:08:55.572Z,6.63
2018-05-02T21:11:24.078Z,6.07
2018-05-02T21:13:52.567Z,5.93
2018-05-02T21:16:21.834Z,5.97
2018-05-02T21:18:50.325Z,6.77
2018-05-02T21:21:18.815Z,6.00
2018-05-02T21:23:47.396Z,6.20
2018-05-02T21:26:15.890Z,5.93
2018-05-02T21:28:44.374Z,5.97
2018-05-02T21:31:12.878Z,6.07
2018-05-02T21:33:41.381Z,5.80
2018-05-02T21:36:10.689Z,5.80
2018-05-02T21:38:39.187Z,5.13
2018-05-02T21:41:07.662Z,5.33
2018-05-02T21:43:36.186Z,5.27
2018-05-02T21:46:04.337Z,5.30
2018-05-02T21:48:33.051Z,5.47
2018-05-02T21:51:01.589Z,5.30
2018-05-02T21:53:30.223Z,5.80
2018-05-02T21:55:58.718Z,5.47
2018-05-02T21:58:29.477Z,6.17
2018-05-02T22:00:58.791Z,5.43
2018-05-02T22:03:27.432Z,5.30
2018-05-02T22:05:56.249Z,5.27
2018-05-02T22:08:25.623Z,5.67
2018-05-02T22:10:54.117Z,5.13
2018-05-02T22:13:24.096Z,5.50
2018-05-02T22:15:52.600Z,5.83
2018-05-02T22:18:21.091Z,5.83
2018-05-02T22:20:49.620Z,5.90
2018-05-02T22:23:18.888Z,5.50
2018-05-02T22:25:48.170Z,5.30
2018-05-02T22:28:16.729Z,5.20
2018-05-02T22:30:45.233Z,5.43
2018-05-02T22:33:13.716Z,5.50
2018-05-02T22:35:42.316Z,6.33
2018-05-02T22:38:10.828Z,4.87
2018-05-02T22:40:40.116Z,5.80
2018-05-02T22:43:08.646Z,6.00
2018-05-02T22:45:37.139Z,5.50
2018-05-02T22:48:05.890Z,5.40
2018-05-02T22:50:35.275Z,5.53
2018-05-02T22:53:04.628Z,5.27
2018-05-02T22:55:33.121Z,5.40
2018-05-02T22:58:01.585Z,5.30
2018-05-02T23:00:30.084Z,5.33
2018-05-02T23:02:58.581Z,5.27
2018-05-02T23:05:27.099Z,5.13
2018-05-02T23:07:56.341Z,5.80
2018-05-02T23:10:24.813Z,5.87
2018-05-02T23:12:53.444Z,5.03
2018-05-02T23:15:21.912Z,5.20
2018-05-02T23:17:50.412Z,5.20
2018-05-02T23:20:18.912Z,5.63
2018-05-02T23:22:47.806Z,5.63
2018-05-02T23:25:16.289Z,5.13
2018-05-02T23:27:44.795Z,5.07
2018-05-02T23:30:13.350Z,4.90
2018-05-02T23:32:42.870Z,5.47
2018-05-02T23:35:12.191Z,5.00
2018-05-02T23:37:40.665Z,5.60
2018-05-02T23:40:09.921Z,5.40
2018-05-02T23:42:38.384Z,5.37
2018-05-02T23:45:06.881Z,4.87
2018-05-02T23:47:35.360Z,5.67
2018-05-02T23:50:03.826Z,4.70
2018-05-02T23:52:32.303Z,5.03
2018-05-02T23:55:00.799Z,5.83
2018-05-02T23:57:29.288Z,5.67
2018-05-02T23:59:57.781Z,5.60
